sensor_id;sensor_type;location;lat;lon;timestamp;P1;durP1;ratioP1;P2;durP2;ratioP2
62050;SDS011;48008;51.204;6.766;2022-08-01T00:00:22;16.60;;;6.60;;
62050;SDS011;48008;51.204;6.766;2022-08-01T00:02:49;12.07;;;5.72;;
62050;SDS011;48008;51.204;6.766;2022-08-01T00:05:15;18.65;;;6.60;;
62050;SDS011;48008;51.204;6.766;2022-08-01T00:07:42;15.65;;;6.38;;
62050;SDS011;48008;51.204;6.766;2022-08-01T00:10:10;18.58;;;6.15;;
62050;SDS011;48008;51.204;6.766;2022-08-01T00:12:40;16.10;;;6.03;;
62050;SDS011;48008;51.204;6.766;2022-08-01T00:15:08;11.88;;;6.22;;
62050;SDS011;48008;51.204;6.766;2022-08-01T00:17:37;15.57;;;5.72;;
62050;SDS011;48008;51.204;6.766;2022-08-01T00:20:04;16.95;;;6.47;;
62050;SDS011;48008;51.204;6.766;2022-08-01T00:22:33;13.93;;;5.70;;
62050;SDS011;48008;51.204;6.766;2022-08-01T00:25:01;13.95;;;5.93;;
62050;SDS011;48008;51.204;6.766;2022-08-01T00:27:28;12.82;;;6.10;;
62050;SDS011;48008;51.204;6.766;2022-08-01T00:29:55;15.02;;;6.05;;
62050;SDS011;48008;51.204;6.766;2022-08-01T00:32:21;16.25;;;6.40;;
62050;SDS011;48008;51.204;6.766;2022-08-01T00:34:48;15.35;;;5.97;;
62050;SDS011;48008;51.204;6.766;2022-08-01T00:37:15;21.02;;;6.45;;
62050;SDS011;48008;51.204;6.766;2022-08-01T00:39:42;15.52;;;6.15;;
62050;SDS011;48008;51.204;6.766;2022-08-01T00:42:09;12.73;;;6.47;;
62050;SDS011;48008;51.204;6.766;2022-08-01T00:44:37;11.93;;;6.20;;
62050;SDS011;48008;51.204;6.766;2022-08-01T00:47:04;18.27;;;6.35;;
62050;SDS011;48008;51.204;6.766;2022-08-01T00:49:31;13.35;;;6.05;;
62050;SDS011;48008;51.204;6.766;2022-08-01T00:51:58;13.40;;;6.28;;
62050;SDS011;48008;51.204;6.766;2022-08-01T00:54:25;19.40;;;5.90;;
62050;SDS011;48008;51.204;6.766;2022-08-01T00:56:53;16.33;;;6.15;;
62050;SDS011;48008;51.204;6.766;2022-08-01T00:59:21;15.15;;;6.78;;
62050;SDS011;48008;51.204;6.766;2022-08-01T01:01:48;14.77;;;6.00;;
62050;SDS011;48008;51.204;6.766;2022-08-01T01:04:16;14.25;;;5.93;;
62050;SDS011;48008;51.204;6.766;2022-08-01T01:06:47;13.88;;;6.40;;
62050;SDS011;48008;51.204;6.766;2022-08-01T01:09:50;12.48;;;6.15;;
62050;SDS011;48008;51.204;6.766;2022-08-01T01:12:36;15.07;;;6.53;;
62050;SDS011;48008;51.204;6.766;2022-08-01T01:15:15;15.63;;;6.80;;
62050;SDS011;48008;51.204;6.766;2022-08-01T01:17:51;15.13;;;6.13;;
62050;SDS011;48008;51.204;6.766;2022-08-01T01:20:24;16.67;;;7.25;;
62050;SDS011;48008;51.204;6.766;2022-08-01T01:23:01;15.60;;;6.60;;
62050;SDS011;48008;51.204;6.766;2022-08-01T01:31:56;15.65;;;6.95;;
62050;SDS011;48008;51.204;6.766;2022-08-01T01:34:28;16.42;;;6.45;;
62050;SDS011;48008;51.204;6.766;2022-08-01T01:37:00;16.05;;;6.57;;
62050;SDS011;48008;51.204;6.766;2022-08-01T01:39:28;14.23;;;6.15;;
62050;SDS011;48008;51.204;6.766;2022-08-01T01:41:58;16.52;;;6.38;;
62050;SDS011;48008;51.204;6.766;2022-08-01T01:44:26;17.10;;;6.93;;
62050;SDS011;48008;51.204;6.766;2022-08-01T01:46:54;16.77;;;6.80;;
62050;SDS011;48008;51.204;6.766;2022-08-01T01:49:23;18.15;;;7.00;;
62050;SDS011;48008;51.204;6.766;2022-08-01T01:51:53;18.55;;;6.97;;
62050;SDS011;48008;51.204;6.766;2022-08-01T01:54:22;15.13;;;6.47;;
62050;SDS011;48008;51.204;6.766;2022-08-01T01:56:52;15.93;;;6.45;;
62050;SDS011;48008;51.204;6.766;2022-08-01T01:59:21;18.95;;;6.63;;
62050;SDS011;48008;51.204;6.766;2022-08-01T02:01:52;14.88;;;6.53;;
62050;SDS011;48008;51.204;6.766;2022-08-01T02:04:21;15.55;;;6.22;;
62050;SDS011;48008;51.204;6.766;2022-08-01T02:06:50;11.82;;;6.32;;
62050;SDS011;48008;51.204;6.766;2022-08-01T02:09:19;14.65;;;6.43;;
62050;SDS011;48008;51.204;6.766;2022-08-01T02:11:48;15.77;;;6.85;;
62050;SDS011;48008;51.204;6.766;2022-08-01T02:14:16;15.10;;;6.38;;
62050;SDS011;48008;51.204;6.766;2022-08-01T02:16:48;16.30;;;7.00;;
62050;SDS011;48008;51.204;6.766;2022-08-01T02:19:17;15.35;;;7.07;;
62050;SDS011;48008;51.204;6.766;2022-08-01T02:21:47;16.88;;;7.20;;
62050;SDS011;48008;51.204;6.766;2022-08-01T02:24:24;19.88;;;7.18;;
62050;SDS011;48008;51.204;6.766;2022-08-01T02:27:06;16.20;;;6.65;;
62050;SDS011;48008;51.204;6.766;2022-08-01T02:29:39;17.55;;;7.43;;
62050;SDS011;48008;51.204;6.766;2022-08-01T02:32:11;17.83;;;7.32;;
62050;SDS011;48008;51.204;6.766;2022-08-01T02:34:41;15.85;;;7.40;;
62050;SDS011;48008;51.204;6.766;2022-08-01T02:37:11;17.67;;;7.27;;
62050;SDS011;48008;51.204;6.766;2022-08-01T02:39:39;21.80;;;7.75;;
62050;SDS011;48008;51.204;6.766;2022-08-01T02:42:07;20.08;;;8.00;;
62050;SDS011;48008;51.204;6.766;2022-08-01T02:44:38;22.13;;;8.27;;
62050;SDS011;48008;51.204;6.766;2022-08-01T02:47:08;17.13;;;7.70;;
62050;SDS011;48008;51.204;6.766;2022-08-01T02:49:37;18.85;;;8.10;;
62050;SDS011;48008;51.204;6.766;2022-08-01T02:52:10;21.40;;;7.93;;
62050;SDS011;48008;51.204;6.766;2022-08-01T02:54:40;20.63;;;8.10;;
62050;SDS011;48008;51.204;6.766;2022-08-01T02:57:09;23.50;;;9.13;;
62050;SDS011;48008;51.204;6.766;2022-08-01T02:59:38;18.58;;;8.07;;
62050;SDS011;48008;51.204;6.766;2022-08-01T03:02:06;20.02;;;8.55;;
62050;SDS011;48008;51.204;6.766;2022-08-01T03:04:36;17.23;;;7.80;;
62050;SDS011;48008;51.204;6.766;2022-08-01T03:07:06;16.23;;;8.07;;
62050;SDS011;48008;51.204;6.766;2022-08-01T03:09:37;18.70;;;7.95;;
62050;SDS011;48008;51.204;6.766;2022-08-01T03:12:09;17.77;;;8.55;;
62050;SDS011;48008;51.204;6.766;2022-08-01T03:14:40;17.17;;;8.05;;
62050;SDS011;48008;51.204;6.766;2022-08-01T03:17:09;18.63;;;8.43;;
62050;SDS011;48008;51.204;6.766;2022-08-01T03:19:38;22.05;;;9.88;;
62050;SDS011;48008;51.204;6.766;2022-08-01T03:22:08;23.80;;;10.23;;
62050;SDS011;48008;51.204;6.766;2022-08-01T03:24:38;27.80;;;11.73;;
62050;SDS011;48008;51.204;6.766;2022-08-01T03:27:06;30.17;;;11.60;;
62050;SDS011;48008;51.204;6.766;2022-08-01T03:29:34;29.65;;;12.10;;
62050;SDS011;48008;51.204;6.766;2022-08-01T03:32:02;24.48;;;12.43;;
62050;SDS011;48008;51.204;6.766;2022-08-01T03:34:30;27.75;;;12.52;;
62050;SDS011;48008;51.204;6.766;2022-08-01T03:40:13;32.40;;;14.40;;
62050;SDS011;48008;51.204;6.766;2022-08-01T03:43:02;27.95;;;14.43;;
62050;SDS011;48008;51.204;6.766;2022-08-01T03:45:34;36.03;;;14.52;;
62050;SDS011;48008;51.204;6.766;2022-08-01T03:48:05;31.10;;;15.40;;
62050;SDS011;48008;51.204;6.766;2022-08-01T03:50:35;32.85;;;15.07;;
62050;SDS011;48008;51.204;6.766;2022-08-01T03:53:05;32.10;;;16.52;;
62050;SDS011;48008;51.204;6.766;2022-08-01T03:55:35;38.15;;;15.75;;
62050;SDS011;48008;51.204;6.766;2022-08-01T03:58:05;36.70;;;17.50;;
62050;SDS011;48008;51.204;6.766;2022-08-01T04:00:36;34.03;;;17.52;;
62050;SDS011;48008;51.204;6.766;2022-08-01T04:03:05;36.53;;;19.05;;
62050;SDS011;48008;51.204;6.766;2022-08-01T04:05:34;36.58;;;17.95;;
62050;SDS011;48008;51.204;6.766;2022-08-01T04:08:01;34.55;;;18.42;;
62050;SDS011;48008;51.204;6.766;2022-08-01T04:10:29;34.60;;;18.67;;
62050;SDS011;48008;51.204;6.766;2022-08-01T04:12:56;31.33;;;17.65;;
62050;SDS011;48008;51.204;6.766;2022-08-01T04:15:22;33.60;;;17.80;;
62050;SDS011;48008;51.204;6.766;2022-08-01T04:17:51;38.40;;;17.35;;
62050;SDS011;48008;51.204;6.766;2022-08-01T04:20:18;41.03;;;20.73;;
62050;SDS011;48008;51.204;6.766;2022-08-01T04:22:44;44.83;;;22.38;;
62050;SDS011;48008;51.204;6.766;2022-08-01T04:25:14;44.78;;;22.60;;
62050;SDS011;48008;51.204;6.766;2022-08-01T04:27:46;43.67;;;22.40;;
62050;SDS011;48008;51.204;6.766;2022-08-01T04:30:15;54.25;;;24.15;;
62050;SDS011;48008;51.204;6.766;2022-08-01T04:32:44;44.38;;;22.67;;
62050;SDS011;48008;51.204;6.766;2022-08-01T04:35:13;43.45;;;21.85;;
62050;SDS011;48008;51.204;6.766;2022-08-01T04:37:42;37.47;;;20.45;;
62050;SDS011;48008;51.204;6.766;2022-08-01T04:40:12;41.40;;;20.10;;
62050;SDS011;48008;51.204;6.766;2022-08-01T04:42:39;40.72;;;20.38;;
62050;SDS011;48008;51.204;6.766;2022-08-01T04:45:07;40.92;;;19.27;;
62050;SDS011;48008;51.204;6.766;2022-08-01T04:47:36;39.28;;;19.00;;
62050;SDS011;48008;51.204;6.766;2022-08-01T04:50:05;39.95;;;19.08;;
62050;SDS011;48008;51.204;6.766;2022-08-01T04:52:34;33.83;;;18.38;;
62050;SDS011;48008;51.204;6.766;2022-08-01T04:55:01;39.50;;;18.85;;
62050;SDS011;48008;51.204;6.766;2022-08-01T04:57:29;37.47;;;18.00;;
62050;SDS011;48008;51.204;6.766;2022-08-01T04:59:56;39.55;;;19.15;;
62050;SDS011;48008;51.204;6.766;2022-08-01T05:02:23;39.63;;;18.50;;
62050;SDS011;48008;51.204;6.766;2022-08-01T05:04:50;35.65;;;18.02;;
62050;SDS011;48008;51.204;6.766;2022-08-01T05:07:16;37.40;;;18.92;;
62050;SDS011;48008;51.204;6.766;2022-08-01T05:09:43;42.45;;;18.65;;
62050;SDS011;48008;51.204;6.766;2022-08-01T05:12:12;34.47;;;18.88;;
62050;SDS011;48008;51.204;6.766;2022-08-01T05:14:39;34.55;;;19.35;;
62050;SDS011;48008;51.204;6.766;2022-08-01T05:17:07;35.67;;;18.42;;
62050;SDS011;48008;51.204;6.766;2022-08-01T05:19:35;40.33;;;19.30;;
62050;SDS011;48008;51.204;6.766;2022-08-01T05:22:04;38.13;;;18.95;;
62050;SDS011;48008;51.204;6.766;2022-08-01T05:24:35;32.15;;;17.20;;
62050;SDS011;48008;51.204;6.766;2022-08-01T05:27:04;37.95;;;18.73;;
62050;SDS011;48008;51.204;6.766;2022-08-01T05:29:31;36.67;;;19.40;;
62050;SDS011;48008;51.204;6.766;2022-08-01T05:31:58;36.75;;;17.58;;
62050;SDS011;48008;51.204;6.766;2022-08-01T05:34:25;37.35;;;19.77;;
62050;SDS011;48008;51.204;6.766;2022-08-01T05:36:53;38.03;;;18.35;;
62050;SDS011;48008;51.204;6.766;2022-08-01T05:39:22;33.22;;;18.13;;
62050;SDS011;48008;51.204;6.766;2022-08-01T05:41:49;35.97;;;17.70;;
62050;SDS011;48008;51.204;6.766;2022-08-01T05:44:15;38.30;;;19.05;;
62050;SDS011;48008;51.204;6.766;2022-08-01T05:46:42;41.42;;;18.30;;
62050;SDS011;48008;51.204;6.766;2022-08-01T05:49:09;46.80;;;17.85;;
62050;SDS011;48008;51.204;6.766;2022-08-01T05:51:35;38.67;;;18.63;;
62050;SDS011;48008;51.204;6.766;2022-08-01T05:54:02;41.55;;;18.83;;
62050;SDS011;48008;51.204;6.766;2022-08-01T05:56:29;38.28;;;18.70;;
62050;SDS011;48008;51.204;6.766;2022-08-01T05:58:57;35.92;;;18.70;;
62050;SDS011;48008;51.204;6.766;2022-08-01T06:01:24;41.20;;;18.38;;
62050;SDS011;48008;51.204;6.766;2022-08-01T06:03:51;39.25;;;16.98;;
62050;SDS011;48008;51.204;6.766;2022-08-01T06:06:20;42.83;;;18.00;;
62050;SDS011;48008;51.204;6.766;2022-08-01T06:08:47;32.75;;;17.08;;
62050;SDS011;48008;51.204;6.766;2022-08-01T06:11:14;32.40;;;16.15;;
62050;SDS011;48008;51.204;6.766;2022-08-01T06:13:41;35.72;;;17.15;;
62050;SDS011;48008;51.204;6.766;2022-08-01T06:16:08;34.15;;;17.25;;
62050;SDS011;48008;51.204;6.766;2022-08-01T06:18:34;33.65;;;17.02;;
62050;SDS011;48008;51.204;6.766;2022-08-01T06:21:02;29.77;;;16.92;;
62050;SDS011;48008;51.204;6.766;2022-08-01T06:23:29;37.83;;;17.35;;
62050;SDS011;48008;51.204;6.766;2022-08-01T06:25:56;33.08;;;16.92;;
62050;SDS011;48008;51.204;6.766;2022-08-01T06:28:24;37.15;;;17.40;;
62050;SDS011;48008;51.204;6.766;2022-08-01T06:30:50;34.63;;;16.48;;
62050;SDS011;48008;51.204;6.766;2022-08-01T06:33:17;35.38;;;18.05;;
62050;SDS011;48008;51.204;6.766;2022-08-01T06:35:44;30.17;;;16.85;;
62050;SDS011;48008;51.204;6.766;2022-08-01T06:38:10;31.88;;;17.20;;
62050;SDS011;48008;51.204;6.766;2022-08-01T06:40:37;36.80;;;17.08;;
62050;SDS011;48008;51.204;6.766;2022-08-01T06:43:04;35.00;;;16.80;;
62050;SDS011;48008;51.204;6.766;2022-08-01T06:45:31;34.65;;;17.45;;
62050;SDS011;48008;51.204;6.766;2022-08-01T06:47:58;32.67;;;17.00;;
62050;SDS011;48008;51.204;6.766;2022-08-01T06:50:24;33.70;;;16.58;;
62050;SDS011;48008;51.204;6.766;2022-08-01T06:52:51;31.38;;;16.77;;
62050;SDS011;48008;51.204;6.766;2022-08-01T06:55:18;30.00;;;15.77;;
62050;SDS011;48008;51.204;6.766;2022-08-01T06:57:46;37.28;;;16.58;;
62050;SDS011;48008;51.204;6.766;2022-08-01T07:00:14;29.80;;;15.55;;
62050;SDS011;48008;51.204;6.766;2022-08-01T07:02:42;31.88;;;16.17;;
62050;SDS011;48008;51.204;6.766;2022-08-01T07:05:09;27.05;;;13.88;;
62050;SDS011;48008;51.204;6.766;2022-08-01T07:07:36;27.42;;;14.93;;
62050;SDS011;48008;51.204;6.766;2022-08-01T07:10:03;24.70;;;14.02;;
62050;SDS011;48008;51.204;6.766;2022-08-01T07:12:31;26.23;;;14.50;;
62050;SDS011;48008;51.204;6.766;2022-08-01T07:14:59;25.95;;;14.95;;
62050;SDS011;48008;51.204;6.766;2022-08-01T07:17:26;23.95;;;14.30;;
62050;SDS011;48008;51.204;6.766;2022-08-01T07:19:52;29.40;;;14.50;;
62050;SDS011;48008;51.204;6.766;2022-08-01T07:22:21;28.13;;;14.00;;
62050;SDS011;48008;51.204;6.766;2022-08-01T07:24:49;27.70;;;13.45;;
62050;SDS011;48008;51.204;6.766;2022-08-01T07:27:15;27.08;;;13.65;;
62050;SDS011;48008;51.204;6.766;2022-08-01T07:29:42;24.20;;;12.90;;
62050;SDS011;48008;51.204;6.766;2022-08-01T07:32:09;24.95;;;12.85;;
62050;SDS011;48008;51.204;6.766;2022-08-01T07:34:36;21.40;;;11.07;;
62050;SDS011;48008;51.204;6.766;2022-08-01T07:37:02;20.75;;;10.23;;
62050;SDS011;48008;51.204;6.766;2022-08-01T07:39:30;19.58;;;10.95;;
62050;SDS011;48008;51.204;6.766;2022-08-01T07:41:56;18.52;;;9.77;;
62050;SDS011;48008;51.204;6.766;2022-08-01T07:44:24;20.50;;;10.40;;
62050;SDS011;48008;51.204;6.766;2022-08-01T07:46:50;22.70;;;10.98;;
62050;SDS011;48008;51.204;6.766;2022-08-01T07:49:17;20.85;;;11.65;;
62050;SDS011;48008;51.204;6.766;2022-08-01T07:51:44;28.75;;;12.23;;
62050;SDS011;48008;51.204;6.766;2022-08-01T07:54:11;26.15;;;12.27;;
62050;SDS011;48008;51.204;6.766;2022-08-01T07:56:37;25.83;;;11.20;;
62050;SDS011;48008;51.204;6.766;2022-08-01T07:59:04;23.73;;;10.90;;
62050;SDS011;48008;51.204;6.766;2022-08-01T08:01:30;20.75;;;8.45;;
62050;SDS011;48008;51.204;6.766;2022-08-01T08:03:57;27.48;;;10.45;;
62050;SDS011;48008;51.204;6.766;2022-08-01T08:06:24;21.00;;;9.75;;
62050;SDS011;48008;51.204;6.766;2022-08-01T08:08:51;22.25;;;8.93;;
62050;SDS011;48008;51.204;6.766;2022-08-01T08:11:19;16.00;;;8.50;;
62050;SDS011;48008;51.204;6.766;2022-08-01T08:13:46;19.80;;;8.40;;
62050;SDS011;48008;51.204;6.766;2022-08-01T08:16:13;18.02;;;7.57;;
62050;SDS011;48008;51.204;6.766;2022-08-01T08:18:40;18.42;;;7.65;;
62050;SDS011;48008;51.204;6.766;2022-08-01T08:21:06;16.90;;;7.72;;
62050;SDS011;48008;51.204;6.766;2022-08-01T08:23:34;17.15;;;6.88;;
62050;SDS011;48008;51.204;6.766;2022-08-01T08:26:21;12.93;;;5.63;;
62050;SDS011;48008;51.204;6.766;2022-08-01T08:28:49;16.05;;;6.63;;
62050;SDS011;48008;51.204;6.766;2022-08-01T08:31:16;15.95;;;6.55;;
62050;SDS011;48008;51.204;6.766;2022-08-01T08:33:42;15.23;;;6.35;;
62050;SDS011;48008;51.204;6.766;2022-08-01T08:36:09;11.95;;;6.13;;
62050;SDS011;48008;51.204;6.766;2022-08-01T08:38:37;11.93;;;6.00;;
62050;SDS011;48008;51.204;6.766;2022-08-01T08:41:04;12.40;;;6.32;;
62050;SDS011;48008;51.204;6.766;2022-08-01T08:43:31;14.98;;;6.28;;
62050;SDS011;48008;51.204;6.766;2022-08-01T08:45:58;11.98;;;5.13;;
62050;SDS011;48008;51.204;6.766;2022-08-01T08:48:26;14.55;;;5.60;;
62050;SDS011;48008;51.204;6.766;2022-08-01T08:50:53;10.00;;;4.90;;
62050;SDS011;48008;51.204;6.766;2022-08-01T08:53:21;15.55;;;5.60;;
62050;SDS011;48008;51.204;6.766;2022-08-01T08:55:48;13.90;;;5.03;;
62050;SDS011;48008;51.204;6.766;2022-08-01T08:58:17;12.45;;;5.50;;
62050;SDS011;48008;51.204;6.766;2022-08-01T09:00:44;12.45;;;5.72;;
62050;SDS011;48008;51.204;6.766;2022-08-01T09:03:11;13.68;;;5.78;;
62050;SDS011;48008;51.204;6.766;2022-08-01T09:05:38;15.00;;;6.70;;
62050;SDS011;48008;51.204;6.766;2022-08-01T09:08:06;17.10;;;6.50;;
62050;SDS011;48008;51.204;6.766;2022-08-01T09:10:34;10.75;;;5.93;;
62050;SDS011;48008;51.204;6.766;2022-08-01T09:13:03;13.07;;;5.55;;
62050;SDS011;48008;51.204;6.766;2022-08-01T09:15:39;9.98;;;4.85;;
62050;SDS011;48008;51.204;6.766;2022-08-01T09:18:08;9.57;;;4.78;;
62050;SDS011;48008;51.204;6.766;2022-08-01T09:21:10;11.80;;;5.15;;
62050;SDS011;48008;51.204;6.766;2022-08-01T09:23:48;11.73;;;5.60;;
62050;SDS011;48008;51.204;6.766;2022-08-01T09:26:17;12.88;;;5.50;;
62050;SDS011;48008;51.204;6.766;2022-08-01T09:28:47;12.57;;;5.88;;
62050;SDS011;48008;51.204;6.766;2022-08-01T09:31:15;13.30;;;5.68;;
62050;SDS011;48008;51.204;6.766;2022-08-01T09:33:47;17.98;;;6.78;;
62050;SDS011;48008;51.204;6.766;2022-08-01T09:36:20;17.65;;;7.07;;
62050;SDS011;48008;51.204;6.766;2022-08-01T09:38:49;14.10;;;5.35;;
62050;SDS011;48008;51.204;6.766;2022-08-01T09:41:17;12.43;;;5.03;;
62050;SDS011;48008;51.204;6.766;2022-08-01T09:43:54;15.32;;;7.28;;
62050;SDS011;48008;51.204;6.766;2022-08-01T09:46:21;13.93;;;6.75;;
62050;SDS011;48008;51.204;6.766;2022-08-01T09:48:59;22.77;;;11.10;;
62050;SDS011;48008;51.204;6.766;2022-08-01T09:51:29;21.40;;;12.13;;
62050;SDS011;48008;51.204;6.766;2022-08-01T09:54:01;15.25;;;5.78;;
62050;SDS011;48008;51.204;6.766;2022-08-01T09:56:39;19.65;;;10.95;;
62050;SDS011;48008;51.204;6.766;2022-08-01T09:59:08;12.20;;;5.88;;
62050;SDS011;48008;51.204;6.766;2022-08-01T10:01:43;14.18;;;5.65;;
62050;SDS011;48008;51.204;6.766;2022-08-01T10:04:14;14.85;;;7.03;;
62050;SDS011;48008;51.204;6.766;2022-08-01T10:06:43;14.50;;;5.40;;
62050;SDS011;48008;51.204;6.766;2022-08-01T10:09:13;11.87;;;5.43;;
62050;SDS011;48008;51.204;6.766;2022-08-01T10:11:41;11.38;;;5.55;;
62050;SDS011;48008;51.204;6.766;2022-08-01T10:14:09;12.75;;;5.35;;
62050;SDS011;48008;51.204;6.766;2022-08-01T10:16:36;11.43;;;4.68;;
62050;SDS011;48008;51.204;6.766;2022-08-01T10:19:05;12.45;;;5.00;;
62050;SDS011;48008;51.204;6.766;2022-08-01T10:21:33;9.50;;;4.93;;
62050;SDS011;48008;51.204;6.766;2022-08-01T10:24:03;10.68;;;5.25;;
62050;SDS011;48008;51.204;6.766;2022-08-01T10:26:34;11.68;;;4.43;;
62050;SDS011;48008;51.204;6.766;2022-08-01T10:29:02;8.60;;;3.85;;
62050;SDS011;48008;51.204;6.766;2022-08-01T10:31:30;13.05;;;4.10;;
62050;SDS011;48008;51.204;6.766;2022-08-01T10:33:59;7.20;;;3.25;;
62050;SDS011;48008;51.204;6.766;2022-08-01T10:36:26;8.23;;;3.22;;
62050;SDS011;48008;51.204;6.766;2022-08-01T10:38:54;6.57;;;3.20;;
62050;SDS011;48008;51.204;6.766;2022-08-01T10:41:21;7.90;;;3.00;;
62050;SDS011;48008;51.204;6.766;2022-08-01T10:43:50;6.22;;;2.92;;
62050;SDS011;48008;51.204;6.766;2022-08-01T10:46:18;8.93;;;3.40;;
62050;SDS011;48008;51.204;6.766;2022-08-01T10:48:51;7.20;;;3.17;;
62050;SDS011;48008;51.204;6.766;2022-08-01T10:51:25;7.78;;;3.03;;
62050;SDS011;48008;51.204;6.766;2022-08-01T10:53:53;8.45;;;3.42;;
62050;SDS011;48008;51.204;6.766;2022-08-01T10:56:21;8.23;;;3.00;;
62050;SDS011;48008;51.204;6.766;2022-08-01T10:58:49;7.55;;;3.13;;
62050;SDS011;48008;51.204;6.766;2022-08-01T11:01:27;9.48;;;3.35;;
62050;SDS011;48008;51.204;6.766;2022-08-01T11:09:16;7.35;;;2.50;;
62050;SDS011;48008;51.204;6.766;2022-08-01T11:12:06;8.55;;;2.70;;
62050;SDS011;48008;51.204;6.766;2022-08-01T11:17:38;10.95;;;2.72;;
62050;SDS011;48008;51.204;6.766;2022-08-01T11:20:22;6.68;;;2.83;;
62050;SDS011;48008;51.204;6.766;2022-08-01T11:28:18;7.38;;;2.92;;
62050;SDS011;48008;51.204;6.766;2022-08-01T11:36:16;9.35;;;2.90;;
62050;SDS011;48008;51.204;6.766;2022-08-01T11:41:37;5.88;;;2.05;;
62050;SDS011;48008;51.204;6.766;2022-08-01T11:44:07;4.82;;;2.10;;
62050;SDS011;48008;51.204;6.766;2022-08-01T11:46:51;10.63;;;2.40;;
62050;SDS011;48008;51.204;6.766;2022-08-01T11:52:14;5.03;;;2.20;;
62050;SDS011;48008;51.204;6.766;2022-08-01T11:54:45;8.35;;;2.38;;
62050;SDS011;48008;51.204;6.766;2022-08-01T11:57:18;6.15;;;2.20;;
62050;SDS011;48008;51.204;6.766;2022-08-01T11:59:49;7.45;;;2.63;;
62050;SDS011;48008;51.204;6.766;2022-08-01T12:02:26;5.30;;;2.20;;
62050;SDS011;48008;51.204;6.766;2022-08-01T12:04:57;6.10;;;2.10;;
62050;SDS011;48008;51.204;6.766;2022-08-01T12:07:26;5.75;;;2.20;;
62050;SDS011;48008;51.204;6.766;2022-08-01T12:10:04;4.60;;;2.22;;
62050;SDS011;48008;51.204;6.766;2022-08-01T12:12:33;10.93;;;2.17;;
62050;SDS011;48008;51.204;6.766;2022-08-01T12:15:04;6.43;;;2.25;;
62050;SDS011;48008;51.204;6.766;2022-08-01T12:17:36;6.47;;;2.40;;
62050;SDS011;48008;51.204;6.766;2022-08-01T12:20:06;6.93;;;2.47;;
62050;SDS011;48008;51.204;6.766;2022-08-01T12:22:34;6.40;;;2.78;;
62050;SDS011;48008;51.204;6.766;2022-08-01T12:25:05;5.78;;;2.40;;
62050;SDS011;48008;51.204;6.766;2022-08-01T12:27:35;7.75;;;2.80;;
62050;SDS011;48008;51.204;6.766;2022-08-01T12:30:04;7.82;;;2.75;;
62050;SDS011;48008;51.204;6.766;2022-08-01T12:32:35;7.47;;;2.65;;
62050;SDS011;48008;51.204;6.766;2022-08-01T12:35:04;8.35;;;2.45;;
62050;SDS011;48008;51.204;6.766;2022-08-01T12:37:35;4.63;;;2.08;;
62050;SDS011;48008;51.204;6.766;2022-08-01T12:40:11;5.57;;;2.20;;
62050;SDS011;48008;51.204;6.766;2022-08-01T12:42:42;5.82;;;2.17;;
62050;SDS011;48008;51.204;6.766;2022-08-01T12:45:12;5.22;;;2.15;;
62050;SDS011;48008;51.204;6.766;2022-08-01T12:47:40;8.07;;;2.20;;
62050;SDS011;48008;51.204;6.766;2022-08-01T12:50:11;5.22;;;2.20;;
62050;SDS011;48008;51.204;6.766;2022-08-01T12:52:39;8.48;;;2.50;;
62050;SDS011;48008;51.204;6.766;2022-08-01T12:55:10;15.68;;;8.15;;
62050;SDS011;48008;51.204;6.766;2022-08-01T12:57:41;4.93;;;2.20;;
62050;SDS011;48008;51.204;6.766;2022-08-01T13:00:12;7.47;;;3.13;;
62050;SDS011;48008;51.204;6.766;2022-08-01T13:02:41;5.70;;;2.55;;
62050;SDS011;48008;51.204;6.766;2022-08-01T13:05:08;7.75;;;3.75;;
62050;SDS011;48008;51.204;6.766;2022-08-01T13:07:38;8.23;;;3.10;;
62050;SDS011;48008;51.204;6.766;2022-08-01T13:10:11;7.65;;;2.55;;
62050;SDS011;48008;51.204;6.766;2022-08-01T13:12:39;7.72;;;3.00;;
62050;SDS011;48008;51.204;6.766;2022-08-01T13:15:16;5.38;;;2.50;;
62050;SDS011;48008;51.204;6.766;2022-08-01T13:17:43;9.70;;;2.90;;
62050;SDS011;48008;51.204;6.766;2022-08-01T13:20:20;6.88;;;3.03;;
62050;SDS011;48008;51.204;6.766;2022-08-01T13:22:48;8.60;;;2.58;;
62050;SDS011;48008;51.204;6.766;2022-08-01T13:25:15;6.70;;;2.50;;
62050;SDS011;48008;51.204;6.766;2022-08-01T13:27:44;7.70;;;2.78;;
62050;SDS011;48008;51.204;6.766;2022-08-01T13:32:44;6.75;;;2.40;;
62050;SDS011;48008;51.204;6.766;2022-08-01T13:35:23;6.50;;;2.67;;
62050;SDS011;48008;51.204;6.766;2022-08-01T13:37:50;6.57;;;3.00;;
62050;SDS011;48008;51.204;6.766;2022-08-01T13:40:24;6.50;;;2.67;;
62050;SDS011;48008;51.204;6.766;2022-08-01T13:42:53;8.27;;;2.30;;
62050;SDS011;48008;51.204;6.766;2022-08-01T13:45:22;8.40;;;2.30;;
62050;SDS011;48008;51.204;6.766;2022-08-01T13:47:49;7.65;;;2.33;;
62050;SDS011;48008;51.204;6.766;2022-08-01T13:50:16;7.28;;;2.63;;
62050;SDS011;48008;51.204;6.766;2022-08-01T13:52:42;7.07;;;2.80;;
62050;SDS011;48008;51.204;6.766;2022-08-01T13:55:09;6.85;;;2.47;;
62050;SDS011;48008;51.204;6.766;2022-08-01T13:57:36;7.53;;;2.45;;
62050;SDS011;48008;51.204;6.766;2022-08-01T14:00:04;6.32;;;2.33;;
62050;SDS011;48008;51.204;6.766;2022-08-01T14:02:39;9.00;;;2.50;;
62050;SDS011;48008;51.204;6.766;2022-08-01T14:05:06;7.18;;;2.28;;
62050;SDS011;48008;51.204;6.766;2022-08-01T14:07:33;5.75;;;2.38;;
62050;SDS011;48008;51.204;6.766;2022-08-01T14:10:00;7.10;;;2.40;;
62050;SDS011;48008;51.204;6.766;2022-08-01T14:12:27;5.75;;;2.28;;
62050;SDS011;48008;51.204;6.766;2022-08-01T14:14:54;6.45;;;2.83;;
62050;SDS011;48008;51.204;6.766;2022-08-01T14:17:20;5.72;;;2.50;;
62050;SDS011;48008;51.204;6.766;2022-08-01T14:19:47;5.45;;;2.50;;
62050;SDS011;48008;51.204;6.766;2022-08-01T14:22:14;6.95;;;2.55;;
62050;SDS011;48008;51.204;6.766;2022-08-01T14:24:40;7.85;;;2.40;;
62050;SDS011;48008;51.204;6.766;2022-08-01T14:27:07;7.35;;;2.63;;
62050;SDS011;48008;51.204;6.766;2022-08-01T14:29:34;8.85;;;2.60;;
62050;SDS011;48008;51.204;6.766;2022-08-01T14:32:01;7.00;;;2.47;;
62050;SDS011;48008;51.204;6.766;2022-08-01T14:34:29;6.68;;;2.55;;
62050;SDS011;48008;51.204;6.766;2022-08-01T14:36:56;8.35;;;2.88;;
62050;SDS011;48008;51.204;6.766;2022-08-01T14:39:23;8.38;;;2.80;;
62050;SDS011;48008;51.204;6.766;2022-08-01T14:41:50;8.95;;;2.88;;
62050;SDS011;48008;51.204;6.766;2022-08-01T14:44:17;9.68;;;3.22;;
62050;SDS011;48008;51.204;6.766;2022-08-01T14:46:43;10.90;;;4.00;;
62050;SDS011;48008;51.204;6.766;2022-08-01T14:49:10;9.02;;;3.30;;
62050;SDS011;48008;51.204;6.766;2022-08-01T14:51:37;10.07;;;3.42;;
62050;SDS011;48008;51.204;6.766;2022-08-01T14:54:04;10.80;;;3.80;;
62050;SDS011;48008;51.204;6.766;2022-08-01T14:56:32;7.57;;;3.00;;
62050;SDS011;48008;51.204;6.766;2022-08-01T14:58:59;9.30;;;3.35;;
62050;SDS011;48008;51.204;6.766;2022-08-01T15:01:25;13.18;;;3.50;;
62050;SDS011;48008;51.204;6.766;2022-08-01T15:03:52;11.55;;;2.92;;
62050;SDS011;48008;51.204;6.766;2022-08-01T15:06:20;11.75;;;3.20;;
62050;SDS011;48008;51.204;6.766;2022-08-01T15:08:46;9.55;;;3.15;;
62050;SDS011;48008;51.204;6.766;2022-08-01T15:11:13;14.18;;;3.60;;
62050;SDS011;48008;51.204;6.766;2022-08-01T15:13:40;11.80;;;3.20;;
62050;SDS011;48008;51.204;6.766;2022-08-01T15:16:08;12.52;;;3.65;;
62050;SDS011;48008;51.204;6.766;2022-08-01T15:18:34;10.75;;;3.42;;
62050;SDS011;48008;51.204;6.766;2022-08-01T15:21:01;9.52;;;3.35;;